createdAt,value
2018-08-25T00:00:26.699Z,2.27
2018-08-25T00:02:54.488Z,2.63
2018-08-25T00:05:22.269Z,2.33
2018-08-25T00:07:50.043Z,5.17
2018-08-25T00:10:17.949Z,3.97
2018-08-25T00:12:45.750Z,2.53
2018-08-25T00:15:13.566Z,2.50
2018-08-25T00:17:41.387Z,4.70
2018-08-25T00:20:09.303Z,4.50
2018-08-25T00:22:37.122Z,2.67
2018-08-25T00:25:04.952Z,3.13
2018-08-25T00:27:32.803Z,3.30
2018-08-25T00:30:00.615Z,2.17
2018-08-25T00:32:28.362Z,4.23
2018-08-25T00:34:56.151Z,3.83
2018-08-25T00:37:23.944Z,1.97
2018-08-25T00:39:51.703Z,3.20
2018-08-25T00:42:19.563Z,2.07
2018-08-25T00:44:47.567Z,3.40
2018-08-25T00:47:15.512Z,3.23
2018-08-25T00:49:43.340Z,2.83
2018-08-25T00:52:11.183Z,3.27
2018-08-25T00:54:39.061Z,4.30
2018-08-25T00:57:06.863Z,2.27
2018-08-25T00:59:34.699Z,3.27
2018-08-25T01:02:02.532Z,3.33
2018-08-25T01:04:30.275Z,2.37
2018-08-25T01:06:58.115Z,2.83
2018-08-25T01:09:25.899Z,3.63
2018-08-25T01:11:53.704Z,2.43
2018-08-25T01:14:21.488Z,2.90
2018-08-25T01:16:49.274Z,4.17
2018-08-25T01:19:17.118Z,3.83
2018-08-25T01:21:45.023Z,3.30
2018-08-25T01:24:12.800Z,2.27
2018-08-25T01:26:40.648Z,1.77
2018-08-25T01:29:08.388Z,3.17
2018-08-25T01:31:36.220Z,3.70
2018-08-25T01:34:04.097Z,5.20
2018-08-25T01:36:31.955Z,3.57
2018-08-25T01:38:59.831Z,3.97
2018-08-25T01:41:27.648Z,4.73
2018-08-25T01:43:55.465Z,4.83
2018-08-25T01:46:23.313Z,1.70
2018-08-25T01:48:51.059Z,2.43
2018-08-25T01:51:18.815Z,3.50
2018-08-25T01:53:46.628Z,2.73
2018-08-25T01:56:14.420Z,3.93
2018-08-25T01:58:42.296Z,2.23
2018-08-25T02:01:10.139Z,4.57
2018-08-25T02:03:37.844Z,3.40
2018-08-25T02:06:05.719Z,3.13
2018-08-25T02:08:33.519Z,2.50
2018-08-25T02:11:01.356Z,3.20
2018-08-25T02:13:29.159Z,3.87
2018-08-25T02:15:57.045Z,4.73
2018-08-25T02:18:24.856Z,2.47
2018-08-25T02:20:52.635Z,1.90
2018-08-25T02:23:20.456Z,2.90
2018-08-25T02:25:48.339Z,6.60
2018-08-25T02:28:16.895Z,3.07
2018-08-25T02:30:44.623Z,4.63
2018-08-25T02:33:12.401Z,3.33
2018-08-25T02:35:40.283Z,8.20
2018-08-25T02:38:08.051Z,4.20
2018-08-25T02:40:35.928Z,6.70
2018-08-25T02:43:03.856Z,3.50
2018-08-25T02:45:31.708Z,4.37
2018-08-25T02:47:59.473Z,5.00
2018-08-25T02:50:27.267Z,6.70
2018-08-25T02:52:55.115Z,3.53
2018-08-25T02:55:22.921Z,4.33
2018-08-25T02:57:50.809Z,4.43
2018-08-25T03:00:18.596Z,3.33
2018-08-25T03:02:46.402Z,4.67
2018-08-25T03:05:14.212Z,6.60
2018-08-25T03:07:41.912Z,4.17
2018-08-25T03:10:09.775Z,5.80
2018-08-25T03:12:37.579Z,5.33
2018-08-25T03:15:05.371Z,4.93
2018-08-25T03:17:33.187Z,7.93
2018-08-25T03:20:01.043Z,4.67
2018-08-25T03:22:28.839Z,2.23
2018-08-25T03:24:56.634Z,3.40
2018-08-25T03:27:24.395Z,3.80
2018-08-25T03:29:52.207Z,5.37
2018-08-25T03:32:20.032Z,5.63
2018-08-25T03:34:47.879Z,6.17
2018-08-25T03:37:15.660Z,2.23
2018-08-25T03:39:43.507Z,3.17
2018-08-25T03:42:11.352Z,3.37
2018-08-25T03:44:39.181Z,4.63
2018-08-25T03:47:07.006Z,3.87
2018-08-25T03:49:34.817Z,4.97
2018-08-25T03:52:02.564Z,3.30
2018-08-25T03:54:30.344Z,6.57
2018-08-25T03:56:58.160Z,3.60
2018-08-25T03:59:25.923Z,3.40
2018-08-25T04:01:53.727Z,5.43
2018-08-25T04:04:21.575Z,5.23
2018-08-25T04:06:49.412Z,7.87
2018-08-25T04:09:17.279Z,4.47
2018-08-25T04:11:45.085Z,4.50
2018-08-25T04:14:13.020Z,5.13
2018-08-25T04:16:40.846Z,5.10
2018-08-25T04:19:19.316Z,5.37
2018-08-25T04:21:47.699Z,6.30
2018-08-25T04:24:15.560Z,4.23
2018-08-25T04:26:43.372Z,3.03
2018-08-25T04:29:11.356Z,6.10
2018-08-25T04:31:39.108Z,3.87
2018-08-25T04:34:06.904Z,5.07
2018-08-25T04:36:34.811Z,5.90
2018-08-25T04:39:03.848Z,3.93
2018-08-25T04:41:31.632Z,4.33
2018-08-25T04:43:59.446Z,5.13
2018-08-25T04:46:27.339Z,5.73
2018-08-25T04:48:55.108Z,4.73
2018-08-25T04:51:22.963Z,3.97
2018-08-25T04:53:50.792Z,2.50
2018-08-25T04:56:18.600Z,4.63
2018-08-25T04:58:46.334Z,3.40
2018-08-25T05:01:14.144Z,6.67
2018-08-25T05:03:48.807Z,5.33
2018-08-25T05:06:16.627Z,4.37
2018-08-25T05:08:44.658Z,3.07
2018-08-25T05:11:12.404Z,2.90
2018-08-25T05:13:40.180Z,3.53
2018-08-25T05:16:08.117Z,3.93
2018-08-25T05:18:35.944Z,3.97
2018-08-25T05:21:03.801Z,3.37
2018-08-25T05:23:31.595Z,3.33
2018-08-25T05:25:59.336Z,4.57
2018-08-25T05:28:27.076Z,3.13
2018-08-25T05:30:54.856Z,4.40
2018-08-25T05:33:22.611Z,3.10
2018-08-25T05:35:50.380Z,5.17
2018-08-25T05:38:18.952Z,4.13
2018-08-25T05:40:46.772Z,5.90
2018-08-25T05:43:14.731Z,4.27
2018-08-25T05:45:42.519Z,5.47
2018-08-25T05:48:10.361Z,5.13
2018-08-25T05:50:38.147Z,4.97
2018-08-25T05:53:06.212Z,4.73
2018-08-25T05:55:34.035Z,4.97
2018-08-25T05:58:01.834Z,5.77
2018-08-25T06:00:29.692Z,4.43
2018-08-25T06:02:57.636Z,4.40
2018-08-25T06:05:25.415Z,3.07
2018-08-25T06:07:53.160Z,4.17
2018-08-25T06:10:21.264Z,4.23
2018-08-25T06:12:49.030Z,4.37
2018-08-25T06:15:16.769Z,5.30
2018-08-25T06:17:44.799Z,4.13
2018-08-25T06:20:12.568Z,4.63
2018-08-25T06:22:40.315Z,5.27
2018-08-25T06:25:08.799Z,5.47
2018-08-25T06:27:36.928Z,7.27
2018-08-25T06:30:05.134Z,3.33
2018-08-25T06:32:32.949Z,3.53
2018-08-25T06:35:00.839Z,5.53
2018-08-25T06:37:28.731Z,6.00
2018-08-25T06:39:56.556Z,4.17
2018-08-25T06:42:24.399Z,6.47
2018-08-25T06:44:52.289Z,4.40
2018-08-25T06:47:20.340Z,5.07
2018-08-25T06:49:48.132Z,5.73
2018-08-25T06:52:16.059Z,4.13
2018-08-25T06:54:43.856Z,6.13
2018-08-25T06:57:11.788Z,7.97
2018-08-25T06:59:39.743Z,5.77
2018-08-25T07:02:07.503Z,6.90
2018-08-25T07:04:35.323Z,8.00
2018-08-25T07:07:03.197Z,5.97
2018-08-25T07:09:31.166Z,6.30
2018-08-25T07:11:58.983Z,7.60
2018-08-25T07:14:26.782Z,7.53
2018-08-25T07:16:54.583Z,6.37
2018-08-25T07:19:22.355Z,9.57
2018-08-25T07:21:50.092Z,10.97
2018-08-25T07:24:21.161Z,7.43
2018-08-25T07:26:49.365Z,7.53
2018-08-25T07:29:17.175Z,6.10
2018-08-25T07:31:44.971Z,5.90
2018-08-25T07:34:12.716Z,9.07
2018-08-25T07:36:40.574Z,6.53
2018-08-25T07:39:10.951Z,9.57
2018-08-25T07:41:38.945Z,6.70
2018-08-25T07:44:06.800Z,8.10
2018-08-25T07:46:34.556Z,8.27
2018-08-25T07:49:02.360Z,12.33
2018-08-25T07:51:30.107Z,5.63
2018-08-25T07:53:57.866Z,7.53
2018-08-25T07:56:25.619Z,6.27
2018-08-25T07:58:53.492Z,5.40
2018-08-25T08:01:21.278Z,9.07
2018-08-25T08:03:55.848Z,8.37
2018-08-25T08:06:23.741Z,4.17
2018-08-25T08:08:51.542Z,10.30
2018-08-25T08:11:19.375Z,8.87
2018-08-25T08:13:47.223Z,9.30
2018-08-25T08:16:15.030Z,7.00
2018-08-25T08:18:42.795Z,9.80
2018-08-25T08:21:10.567Z,7.13
2018-08-25T08:23:38.417Z,7.30
2018-08-25T08:26:06.255Z,4.33
2018-08-25T08:28:34.056Z,6.83
2018-08-25T08:31:01.851Z,6.53
2018-08-25T08:33:29.683Z,4.73
2018-08-25T08:35:57.538Z,7.63
2018-08-25T08:38:25.397Z,5.80
2018-08-25T08:40:53.211Z,4.70
2018-08-25T08:43:21.013Z,4.40
2018-08-25T08:45:48.827Z,8.20
2018-08-25T08:48:16.700Z,5.03
2018-08-25T08:50:44.504Z,4.93
2018-08-25T08:53:12.321Z,6.23
2018-08-25T08:55:40.158Z,5.93
2018-08-25T08:58:08.008Z,3.23
2018-08-25T09:00:35.806Z,3.57
2018-08-25T09:03:03.615Z,3.13
2018-08-25T09:05:31.421Z,6.10
2018-08-25T09:07:59.223Z,4.23
2018-08-25T09:10:27.043Z,2.87
2018-08-25T09:12:54.799Z,3.27
2018-08-25T09:15:22.560Z,3.50
2018-08-25T09:17:50.323Z,5.27
2018-08-25T09:20:18.107Z,3.47
2018-08-25T09:22:45.955Z,4.63
2018-08-25T09:25:13.788Z,4.77
2018-08-25T09:27:41.576Z,5.50
2018-08-25T09:30:09.419Z,3.00
2018-08-25T09:32:37.211Z,3.13
2018-08-25T09:35:05.051Z,2.43
2018-08-25T09:37:33.095Z,4.33
2018-08-25T09:40:00.976Z,3.13
2018-08-25T09:42:28.744Z,4.77
2018-08-25T09:44:56.487Z,3.73
2018-08-25T09:47:24.228Z,4.73
2018-08-25T09:49:52.040Z,5.20
2018-08-25T09:52:19.864Z,2.73
2018-08-25T09:54:47.615Z,2.10
2018-08-25T09:57:15.439Z,2.17
2018-08-25T09:59:43.224Z,6.43
2018-08-25T10:02:11.075Z,1.60
2018-08-25T10:04:38.840Z,2.50
2018-08-25T10:07:06.705Z,2.83
2018-08-25T10:09:34.544Z,2.63
2018-08-25T10:12:02.327Z,2.00
2018-08-25T10:14:30.096Z,3.43
2018-08-25T10:16:57.985Z,2.33
2018-08-25T10:19:25.770Z,2.13
2018-08-25T10:21:53.490Z,1.43
2018-08-25T10:24:21.240Z,3.10
2018-08-25T10:26:49.020Z,4.57
2018-08-25T10:29:16.801Z,1.00
2018-08-25T10:31:44.642Z,2.00
2018-08-25T10:34:12.507Z,1.67
2018-08-25T10:36:40.500Z,2.40
2018-08-25T10:39:10.459Z,1.23
2018-08-25T10:41:38.366Z,1.20
2018-08-25T10:44:06.707Z,1.23
2018-08-25T10:46:34.787Z,0.60
2018-08-25T10:49:02.563Z,1.67
2018-08-25T10:51:30.675Z,1.50
2018-08-25T10:53:58.497Z,1.10
2018-08-25T10:56:26.315Z,0.90
2018-08-25T10:58:54.125Z,1.53
2018-08-25T11:01:21.923Z,1.90
2018-08-25T11:03:49.763Z,0.93
2018-08-25T11:06:17.583Z,0.87
2018-08-25T11:08:45.435Z,2.10
2018-08-25T11:11:13.308Z,1.23
2018-08-25T11:13:41.112Z,1.00
2018-08-25T11:16:08.937Z,1.10
2018-08-25T11:18:36.779Z,1.70
2018-08-25T11:21:04.723Z,1.17
2018-08-25T11:23:32.483Z,1.13
2018-08-25T11:26:00.212Z,1.30
2018-08-25T11:28:27.999Z,1.00
2018-08-25T11:30:55.775Z,1.10
2018-08-25T11:33:23.600Z,0.53
2018-08-25T11:35:51.408Z,0.60
2018-08-25T11:38:19.179Z,0.70
2018-08-25T11:40:46.979Z,1.77
2018-08-25T11:43:14.802Z,1.00
2018-08-25T11:45:42.536Z,0.60
2018-08-25T11:48:10.406Z,1.03
2018-08-25T11:50:38.208Z,0.60
2018-08-25T11:53:06.073Z,1.23
2018-08-25T11:55:33.930Z,1.40
2018-08-25T11:58:01.883Z,1.13
2018-08-25T12:00:29.771Z,0.63
2018-08-25T12:02:57.588Z,0.83
2018-08-25T12:05:25.296Z,1.27
2018-08-25T12:07:53.144Z,1.40
2018-08-25T12:10:20.956Z,0.70
2018-08-25T12:12:48.722Z,0.53
2018-08-25T12:15:16.487Z,1.07
2018-08-25T12:17:44.303Z,0.60
2018-08-25T12:20:12.180Z,0.90
2018-08-25T12:22:39.883Z,0.63
2018-08-25T12:25:07.952Z,0.70
2018-08-25T12:27:42.956Z,1.60
2018-08-25T12:30:11.268Z,0.97
2018-08-25T12:32:39.100Z,0.80
2018-08-25T12:35:06.994Z,1.00
2018-08-25T12:37:34.820Z,0.60
2018-08-25T12:40:02.881Z,1.63
2018-08-25T12:42:30.755Z,0.73
2018-08-25T12:45:01.981Z,2.20
2018-08-25T12:47:29.735Z,0.97
2018-08-25T12:49:57.935Z,1.80
2018-08-25T12:52:25.722Z,1.60
2018-08-25T12:54:53.599Z,0.90
2018-08-25T12:57:21.724Z,2.07
2018-08-25T12:59:49.916Z,0.63
2018-08-25T13:02:17.716Z,0.77
2018-08-25T13:04:45.547Z,2.30
2018-08-25T13:07:14.181Z,0.70
2018-08-25T13:09:42.907Z,1.57
2018-08-25T13:12:11.439Z,0.90
2018-08-25T13:14:42.416Z,1.67
2018-08-25T13:17:22.183Z,0.70
2018-08-25T13:19:51.964Z,1.03
2018-08-25T13:22:19.791Z,0.90
2018-08-25T13:24:47.670Z,0.70
2018-08-25T13:27:18.567Z,1.67
2018-08-25T13:29:46.343Z,1.87
2018-08-25T13:32:14.274Z,0.90
2018-08-25T13:34:42.223Z,0.87
2018-08-25T13:37:10.825Z,1.23
2018-08-25T13:39:38.570Z,1.77
2018-08-25T13:42:06.767Z,1.87
2018-08-25T13:44:34.628Z,2.20
2018-08-25T13:47:02.475Z,0.97
2018-08-25T13:49:30.285Z,0.70
2018-08-25T13:51:58.076Z,1.10
2018-08-25T13:54:26.918Z,1.80
2018-08-25T13:56:54.724Z,2.10
2018-08-25T13:59:22.520Z,1.20
2018-08-25T14:01:50.411Z,2.30
2018-08-25T14:04:18.375Z,0.80
2018-08-25T14:06:46.186Z,1.63
2018-08-25T14:09:14.040Z,1.20
2018-08-25T14:11:41.884Z,0.97
2018-08-25T14:14:09.756Z,1.90
2018-08-25T14:16:37.547Z,1.90
2018-08-25T14:19:05.367Z,2.00
2018-08-25T14:21:33.187Z,0.67
2018-08-25T14:24:00.967Z,2.50
2018-08-25T14:26:28.852Z,1.33
2018-08-25T14:28:56.697Z,1.53
2018-08-25T14:31:24.416Z,1.57
2018-08-25T14:33:52.144Z,1.07
2018-08-25T14:36:20.273Z,1.10
2018-08-25T14:38:47.980Z,1.00
2018-08-25T14:41:15.803Z,0.97
2018-08-25T14:43:43.731Z,1.03
2018-08-25T14:46:11.703Z,1.53
2018-08-25T14:48:39.572Z,0.70
2018-08-25T14:51:07.843Z,1.00
2018-08-25T14:53:42.173Z,1.37
2018-08-25T14:56:11.237Z,1.67
2018-08-25T14:58:39.055Z,1.00
2018-08-25T15:01:06.912Z,0.90
2018-08-25T15:03:34.634Z,3.30
2018-08-25T15:06:02.374Z,1.17
2018-08-25T15:08:30.702Z,1.37
2018-08-25T15:10:58.795Z,1.40
2018-08-25T15:13:26.638Z,0.87
2018-08-25T15:15:58.697Z,1.23
2018-08-25T15:18:37.835Z,1.40
2018-08-25T15:21:06.096Z,1.07
2018-08-25T15:23:33.921Z,1.13
2018-08-25T15:26:02.247Z,1.03
2018-08-25T15:28:30.034Z,1.17
2018-08-25T15:30:57.953Z,1.93
2018-08-25T15:33:25.695Z,1.70
2018-08-25T15:35:53.563Z,1.30
2018-08-25T15:38:21.344Z,1.20
2018-08-25T15:40:49.168Z,2.37
2018-08-25T15:43:17.012Z,1.40
2018-08-25T15:45:44.808Z,0.70
2018-08-25T15:48:12.736Z,2.20
2018-08-25T15:50:40.834Z,1.00
2018-08-25T15:53:08.626Z,3.00
2018-08-25T15:55:36.451Z,1.40
2018-08-25T15:58:04.723Z,2.07
2018-08-25T16:00:37.601Z,2.47
2018-08-25T16:03:05.552Z,1.70
2018-08-25T16:05:36.461Z,3.93
2018-08-25T16:08:04.540Z,2.10
2018-08-25T16:10:34.970Z,3.17
2018-08-25T16:13:02.836Z,1.27
2018-08-25T16:15:30.934Z,1.23
2018-08-25T16:17:58.860Z,1.03
2018-08-25T16:20:26.651Z,1.90
2018-08-25T16:22:54.480Z,3.47
2018-08-25T16:25:22.956Z,2.93
2018-08-25T16:27:50.704Z,1.73
2018-08-25T16:30:18.761Z,3.13
2018-08-25T16:32:46.697Z,1.73
2018-08-25T16:35:15.184Z,2.87
2018-08-25T16:37:43.088Z,2.77
2018-08-25T16:40:19.673Z,1.57
2018-08-25T16:42:51.748Z,1.20
2018-08-25T16:45:19.624Z,1.73
2018-08-25T16:47:47.530Z,0.80
2018-08-25T16:50:15.475Z,2.77
2018-08-25T16:52:43.336Z,2.53
2018-08-25T16:55:11.160Z,2.03
2018-08-25T16:57:39.630Z,0.90
2018-08-25T17:00:07.924Z,2.53
2018-08-25T17:02:35.974Z,3.40
2018-08-25T17:05:03.922Z,3.60
2018-08-25T17:07:31.704Z,7.10
2018-08-25T17:09:59.528Z,6.67
2018-08-25T17:12:27.292Z,2.67
2018-08-25T17:14:55.039Z,2.53
2018-08-25T17:17:23.127Z,6.57
2018-08-25T17:19:50.888Z,3.30
2018-08-25T17:22:18.685Z,6.60
2018-08-25T17:24:46.533Z,1.47
2018-08-25T17:27:14.543Z,2.87
2018-08-25T17:29:42.390Z,3.53
2018-08-25T17:32:11.347Z,2.30
2018-08-25T17:34:39.167Z,5.07
2018-08-25T17:37:07.106Z,2.73
2018-08-25T17:39:34.911Z,1.10
2018-08-25T17:42:02.676Z,2.37
2018-08-25T17:44:30.475Z,1.97
2018-08-25T17:46:58.292Z,2.60
2018-08-25T17:49:26.083Z,2.03
2018-08-25T17:51:53.915Z,2.60
2018-08-25T17:54:21.684Z,1.43
2018-08-25T17:56:49.567Z,2.13
2018-08-25T17:59:17.339Z,2.07
2018-08-25T18:01:45.192Z,2.57
2018-08-25T18:04:13.135Z,1.13
2018-08-25T18:06:40.880Z,1.50
2018-08-25T18:09:08.656Z,3.13
2018-08-25T18:11:36.575Z,1.43
2018-08-25T18:14:04.389Z,1.93
2018-08-25T18:16:32.223Z,1.27
2018-08-25T18:19:00.073Z,5.27
2018-08-25T18:21:27.953Z,2.53
2018-08-25T18:23:55.754Z,1.87
2018-08-25T18:26:23.625Z,3.40
2018-08-25T18:28:51.399Z,1.90
2018-08-25T18:31:19.244Z,1.87
2018-08-25T18:33:47.023Z,1.50
2018-08-25T18:36:14.743Z,2.73
2018-08-25T18:38:42.596Z,1.00
2018-08-25T18:41:10.355Z,2.27
2018-08-25T18:43:38.227Z,4.17
2018-08-25T18:46:06.047Z,1.00
2018-08-25T18:48:33.920Z,1.03
2018-08-25T18:51:01.839Z,8.70
2018-08-25T18:53:29.663Z,1.20
2018-08-25T18:55:57.512Z,4.80
2018-08-25T18:58:25.290Z,3.80
2018-08-25T19:00:53.094Z,7.87
2018-08-25T19:03:20.927Z,1.20
2018-08-25T19:05:48.791Z,0.77
2018-08-25T19:08:16.606Z,1.50
2018-08-25T19:10:45.110Z,8.40
2018-08-25T19:13:13.436Z,2.67
2018-08-25T19:15:41.228Z,1.40
2018-08-25T19:18:09.019Z,3.60
2018-08-25T19:20:36.787Z,1.63
2018-08-25T19:23:04.635Z,2.27
2018-08-25T19:25:32.450Z,3.77
2018-08-25T19:28:00.378Z,2.83
2018-08-25T19:30:28.191Z,4.60
2018-08-25T19:32:56.013Z,2.00
2018-08-25T19:35:23.846Z,2.47
2018-08-25T19:37:51.599Z,3.40
2018-08-25T19:40:19.312Z,1.30
2018-08-25T19:42:47.124Z,1.80
2018-08-25T19:45:15.279Z,2.57
2018-08-25T19:47:43.124Z,1.10
2018-08-25T19:50:10.988Z,0.93
2018-08-25T19:52:38.823Z,2.23
2018-08-25T19:55:06.656Z,2.67
2018-08-25T19:57:34.401Z,2.73
2018-08-25T20:00:02.265Z,1.10
2018-08-25T20:02:31.244Z,1.27
2018-08-25T20:04:59.092Z,1.17
2018-08-25T20:07:26.879Z,1.93
2018-08-25T20:09:55.248Z,3.07
2018-08-25T20:12:23.076Z,1.77
2018-08-25T20:14:50.976Z,2.13
2018-08-25T20:17:18.776Z,1.10
2018-08-25T20:19:46.686Z,2.37
2018-08-25T20:22:14.965Z,2.17
2018-08-25T20:24:42.974Z,0.83
2018-08-25T20:27:11.344Z,3.93
2018-08-25T20:29:39.095Z,1.43
2018-08-25T20:32:06.956Z,3.07
2018-08-25T20:34:34.802Z,1.30
2018-08-25T20:37:02.597Z,1.50
2018-08-25T20:39:31.230Z,2.40
2018-08-25T20:41:59.075Z,2.10
2018-08-25T20:44:26.855Z,2.23
2018-08-25T20:46:54.620Z,1.73
2018-08-25T20:49:22.459Z,1.53
2018-08-25T20:51:50.952Z,2.03
2018-08-25T20:54:19.045Z,1.60
2018-08-25T20:56:47.214Z,2.13
2018-08-25T20:59:15.020Z,1.23
2018-08-25T21:01:42.745Z,2.97
2018-08-25T21:04:10.605Z,1.43
2018-08-25T21:06:38.408Z,2.40
2018-08-25T21:09:08.668Z,3.17
2018-08-25T21:11:37.512Z,2.27
2018-08-25T21:14:05.788Z,1.13
2018-08-25T21:16:34.526Z,2.03
2018-08-25T21:19:02.655Z,2.03
2018-08-25T21:21:31.845Z,2.27
2018-08-25T21:23:59.771Z,2.77
2018-08-25T21:26:27.573Z,1.23
2018-08-25T21:28:56.279Z,1.50
2018-08-25T21:31:24.100Z,1.57
2018-08-25T21:33:51.892Z,1.73
2018-08-25T21:36:19.723Z,2.20
2018-08-25T21:38:47.858Z,1.37
2018-08-25T21:41:15.692Z,2.40
2018-08-25T21:43:43.487Z,3.60
2018-08-25T21:46:11.284Z,2.30
2018-08-25T21:48:39.372Z,1.67
2018-08-25T21:51:11.979Z,1.43
2018-08-25T21:53:40.010Z,1.53
2018-08-25T21:56:08.318Z,1.43
2018-08-25T21:58:36.124Z,3.13
2018-08-25T22:01:03.950Z,1.60
2018-08-25T22:03:31.741Z,3.70
2018-08-25T22:05:59.557Z,3.63
2018-08-25T22:08:27.359Z,2.37
2018-08-25T22:10:59.783Z,1.10
2018-08-25T22:13:28.588Z,1.07
2018-08-25T22:15:56.411Z,1.60
2018-08-25T22:18:24.208Z,1.87
2018-08-25T22:20:52.056Z,2.17
2018-08-25T22:23:19.850Z,1.10
2018-08-25T22:25:48.338Z,2.07
2018-08-25T22:28:16.268Z,2.43
2018-08-25T22:30:44.499Z,2.13
2018-08-25T22:33:12.252Z,1.40
2018-08-25T22:35:40.043Z,0.90
2018-08-25T22:38:07.904Z,1.90
2018-08-25T22:40:43.027Z,1.67
2018-08-25T22:43:10.859Z,1.47
2018-08-25T22:45:38.619Z,2.27
2018-08-25T22:48:06.414Z,1.93
2018-08-25T22:50:34.215Z,2.60
2018-08-25T22:53:01.964Z,1.63
2018-08-25T22:55:29.829Z,1.17
2018-08-25T22:57:58.053Z,4.00
2018-08-25T23:03:00.601Z,1.67
2018-08-25T23:05:28.443Z,1.80
2018-08-25T23:08:02.664Z,1.60
2018-08-25T23:10:42.518Z,1.00
2018-08-25T23:13:13.759Z,2.40
2018-08-25T23:15:41.555Z,2.03
2018-08-25T23:18:09.351Z,1.67
2018-08-25T23:20:37.119Z,1.90
2018-08-25T23:23:04.971Z,1.20
2018-08-25T23:25:32.819Z,2.80
2018-08-25T23:28:01.476Z,0.80
2018-08-25T23:30:29.328Z,1.67
2018-08-25T23:32:57.123Z,1.77
2018-08-25T23:35:24.952Z,2.43
2018-08-25T23:37:52.774Z,2.17
2018-08-25T23:40:20.603Z,1.50
2018-08-25T23:42:48.447Z,1.20
2018-08-25T23:45:16.271Z,0.80
2018-08-25T23:47:44.049Z,1.10
2018-08-25T23:50:11.790Z,3.47
2018-08-25T23:52:39.594Z,2.30
2018-08-25T23:55:07.878Z,2.27
2018-08-25T23:57:35.635Z,2.20
